Time;durP1;ratioP1;P1;durP2;ratioP2;P2;SDS_P1;SDS_P2;PMS_P1;PMS_P2;Temp;Humidity;BMP_temperature;BMP_pressure;BME280_temperature;BME280_humidity;BME280_pressure;Samples;Min_cycle;Max_cycle;Signal;HPM_P1;HPM_P2
2023/06/14 00:00:19;;;;;;;9.50;8.70;;;20.20;46.20;;;;;;4992635;28;20249;-85
2023/06/14 00:02:45;;;;;;;9.73;9.13;;;20.20;46.00;;;;;;4994132;28;20211;-85
2023/06/14 00:05:14;;;;;;;9.57;8.88;;;20.10;46.50;;;;;;4992746;28;20230;-85
2023/06/14 00:07:43;;;;;;;9.77;9.07;;;20.20;46.50;;;;;;4988489;28;20626;-84
2023/06/14 00:10:10;;;;;;;10.38;9.45;;;20.20;46.10;;;;;;4972645;28;20219;-85
2023/06/14 00:12:36;;;;;;;9.88;9.18;;;20.30;46.20;;;;;;4977654;28;20265;-85
2023/06/14 00:15:02;;;;;;;9.90;9.25;;;20.30;45.60;;;;;;4992195;28;20270;-85
2023/06/14 00:17:30;;;;;;;10.02;9.32;;;20.30;45.90;;;;;;4991088;28;20273;-86
2023/06/14 00:19:56;;;;;;;9.95;9.25;;;20.10;46.10;;;;;;4992550;28;20560;-85
2023/06/14 00:22:24;;;;;;;10.43;9.63;;;19.90;46.80;;;;;;4992853;28;21060;-85
2023/06/14 00:24:53;;;;;;;9.95;9.15;;;19.80;46.70;;;;;;4993376;28;20194;-85
2023/06/14 00:27:18;;;;;;;9.27;8.57;;;19.70;46.90;;;;;;4993258;28;20183;-85
2023/06/14 00:29:44;;;;;;;9.68;8.98;;;19.70;47.30;;;;;;4992741;28;20252;-84
2023/06/14 00:32:10;;;;;;;9.35;8.75;;;19.60;47.50;;;;;;4992288;28;20218;-85
2023/06/14 00:34:35;;;;;;;9.90;9.00;;;19.60;47.40;;;;;;4994706;28;20186;-86
2023/06/14 00:37:01;;;;;;;9.13;8.52;;;19.50;47.90;;;;;;4995908;28;20178;-85
2023/06/14 00:39:27;;;;;;;9.23;8.52;;;19.40;48.30;;;;;;4992710;28;20621;-86
2023/06/14 00:41:52;;;;;;;9.27;8.57;;;19.50;47.60;;;;;;4992492;28;20248;-85
2023/06/14 00:44:18;;;;;;;10.52;9.55;;;19.70;47.50;;;;;;4992945;28;20194;-83
2023/06/14 00:46:47;;;;;;;10.18;9.38;;;19.90;47.10;;;;;;4992754;28;20178;-85
2023/06/14 00:49:15;;;;;;;9.52;8.93;;;20.00;46.10;;;;;;4995699;28;20171;-85
2023/06/14 00:51:45;;;;;;;9.90;9.20;;;20.10;46.00;;;;;;5001365;28;20273;-86
2023/06/14 00:54:11;;;;;;;10.82;10.02;;;19.90;46.40;;;;;;4995729;28;20172;-86
2023/06/14 00:56:37;;;;;;;9.70;8.90;;;19.80;46.80;;;;;;4995747;28;20198;-85
2023/06/14 00:59:03;;;;;;;9.48;8.75;;;19.90;46.40;;;;;;4991371;28;20178;-85
2023/06/14 01:01:32;;;;;;;9.25;8.55;;;20.00;44.80;;;;;;4994275;28;20226;-85
2023/06/14 01:03:58;;;;;;;9.43;8.77;;;19.80;45.10;;;;;;4995132;28;20187;-85
2023/06/14 01:06:47;;;;;;;9.52;8.73;;;19.70;46.50;;;;;;4995953;28;20170;-85
2023/06/14 01:09:56;;;;;;;9.48;8.77;;;19.40;47.00;;;;;;4994876;28;20575;-85
2023/06/14 01:12:49;;;;;;;9.52;8.73;;;19.40;47.00;;;;;;4995701;28;20248;-85
2023/06/14 01:15:16;;;;;;;9.48;8.73;;;19.50;46.90;;;;;;4996472;28;20190;-84
2023/06/14 01:17:43;;;;;;;9.40;8.60;;;19.60;46.80;;;;;;4994688;28;20654;-85
2023/06/14 01:20:14;;;;;;;8.95;8.25;;;19.50;47.20;;;;;;4995406;28;20202;-85
2023/06/14 01:22:52;;;;;;;9.32;8.65;;;19.70;45.30;;;;;;4995134;28;20214;-86
2023/06/14 01:25:22;;;;;;;8.75;8.15;;;19.60;47.10;;;;;;4995150;28;20182;-84
2023/06/14 01:27:52;;;;;;;8.90;8.30;;;19.40;47.70;;;;;;4995033;28;20205;-85
2023/06/14 01:30:19;;;;;;;8.75;8.15;;;19.30;48.50;;;;;;4993783;28;20719;-87
2023/06/14 01:32:46;;;;;;;9.23;8.52;;;19.20;48.80;;;;;;4995345;28;20198;-86
2023/06/14 01:35:12;;;;;;;8.60;8.07;;;19.00;49.70;;;;;;4995860;28;20178;-85
2023/06/14 01:37:39;;;;;;;8.15;7.55;;;19.00;49.80;;;;;;4993514;28;20175;-86
2023/06/14 01:40:07;;;;;;;8.73;8.00;;;18.90;50.10;;;;;;4994905;28;20189;-85
2023/06/14 01:42:37;;;;;;;8.45;7.65;;;18.70;51.10;;;;;;4993854;28;20209;-85
2023/06/14 01:45:05;;;;;;;8.82;8.02;;;18.60;51.10;;;;;;4994611;28;20181;-85
2023/06/14 01:47:32;;;;;;;8.50;7.80;;;18.60;51.00;;;;;;4995819;28;20181;-86
2023/06/14 01:49:58;;;;;;;8.20;7.50;;;18.60;51.10;;;;;;4994723;28;20213;-85
2023/06/14 01:52:24;;;;;;;8.70;8.00;;;18.50;50.70;;;;;;4996079;28;20209;-86
2023/06/14 01:54:50;;;;;;;8.18;7.57;;;18.60;50.90;;;;;;5004913;28;20226;-86
2023/06/14 01:57:16;;;;;;;8.30;7.72;;;18.70;51.00;;;;;;5000540;28;20178;-85
2023/06/14 01:59:42;;;;;;;8.50;7.80;;;18.60;51.30;;;;;;4996399;28;20238;-85
2023/06/14 02:02:08;;;;;;;7.78;7.22;;;18.50;52.00;;;;;;4996211;28;20230;-86
2023/06/14 02:04:34;;;;;;;8.32;7.72;;;18.40;52.00;;;;;;4988857;28;20194;-84
2023/06/14 02:07:00;;;;;;;7.72;7.22;;;18.30;52.30;;;;;;4978472;28;20197;-85
2023/06/14 02:09:26;;;;;;;8.07;7.45;;;18.30;52.80;;;;;;4994884;28;20236;-85
2023/06/14 02:11:51;;;;;;;8.00;7.40;;;18.10;53.20;;;;;;4996107;28;20220;-85
2023/06/14 02:14:17;;;;;;;7.90;7.20;;;18.10;53.20;;;;;;4993903;28;20188;-85
2023/06/14 02:16:48;;;;;;;8.25;7.55;;;18.00;53.00;;;;;;4994725;28;20432;-84
2023/06/14 02:19:16;;;;;;;7.70;7.10;;;18.10;52.60;;;;;;4994841;28;20194;-85
2023/06/14 02:21:42;;;;;;;8.32;7.72;;;18.10;52.80;;;;;;4993447;28;20218;-84
2023/06/14 02:24:08;;;;;;;7.90;7.07;;;17.90;52.80;;;;;;4992835;28;20193;-86
2023/06/14 02:26:34;;;;;;;7.90;7.13;;;17.80;53.00;;;;;;4993178;28;20784;-85
2023/06/14 02:28:59;;;;;;;7.50;6.90;;;17.60;53.60;;;;;;4995560;28;20269;-85
2023/06/14 02:31:25;;;;;;;7.10;6.40;;;17.40;53.40;;;;;;4995837;28;20251;-84
2023/06/14 02:33:51;;;;;;;7.77;7.17;;;17.50;52.00;;;;;;4993390;28;20170;-85
2023/06/14 02:36:17;;;;;;;7.07;6.53;;;17.60;50.40;;;;;;4994775;28;20187;-84
2023/06/14 02:38:43;;;;;;;7.57;7.00;;;17.90;49.70;;;;;;4993923;28;20820;-85
2023/06/14 02:41:08;;;;;;;7.40;6.87;;;18.00;48.20;;;;;;4996452;28;20208;-85
2023/06/14 02:43:34;;;;;;;7.50;6.97;;;18.10;48.00;;;;;;4995482;28;20190;-85
2023/06/14 02:46:00;;;;;;;7.30;6.80;;;18.20;47.60;;;;;;4996214;28;20220;-86
2023/06/14 02:48:25;;;;;;;8.88;7.00;;;18.30;47.50;;;;;;4996684;28;20450;-85
2023/06/14 02:50:51;;;;;;;8.18;7.57;;;18.30;47.50;;;;;;4997270;28;20720;-86
2023/06/14 02:53:17;;;;;;;7.72;7.13;;;18.30;47.20;;;;;;4997706;28;20236;-86
2023/06/14 02:55:44;;;;;;;7.93;7.20;;;18.20;47.20;;;;;;4996652;28;20656;-85
2023/06/14 02:58:09;;;;;;;8.68;7.90;;;18.10;48.40;;;;;;4994640;28;20320;-84
2023/06/14 03:00:36;;;;;;;7.60;6.97;;;18.00;47.80;;;;;;4995813;28;20193;-84
2023/06/14 03:03:01;;;;;;;7.63;6.90;;;18.00;48.00;;;;;;4996283;28;20243;-84
2023/06/14 03:05:27;;;;;;;8.10;6.93;;;18.00;48.00;;;;;;4996543;28;20173;-84
2023/06/14 03:07:54;;;;;;;7.47;6.70;;;18.00;47.90;;;;;;4990636;28;20178;-86
2023/06/14 03:10:20;;;;;;;7.63;7.00;;;18.20;48.10;;;;;;4974407;28;20212;-85
2023/06/14 03:12:47;;;;;;;7.85;7.07;;;18.40;47.80;;;;;;4975410;28;20202;-84
2023/06/14 03:15:17;;;;;;;7.82;7.32;;;18.40;47.00;;;;;;4990293;28;20184;-86
2023/06/14 03:17:45;;;;;;;8.50;7.63;;;18.50;46.90;;;;;;4994227;28;20188;-85
2023/06/14 03:20:11;;;;;;;8.00;7.50;;;18.50;46.80;;;;;;4993077;28;20681;-85
2023/06/14 03:22:37;;;;;;;7.93;7.30;;;18.40;46.80;;;;;;4994443;28;20218;-85
2023/06/14 03:25:04;;;;;;;8.15;7.38;;;18.50;46.90;;;;;;4995184;28;20228;-86
2023/06/14 03:27:29;;;;;;;8.60;7.90;;;18.60;47.10;;;;;;4994993;28;20881;-84
2023/06/14 03:29:55;;;;;;;8.05;7.50;;;18.60;48.10;;;;;;4993593;28;20220;-84
2023/06/14 03:32:21;;;;;;;7.85;7.20;;;18.50;47.90;;;;;;4991947;28;20206;-83
2023/06/14 03:34:46;;;;;;;8.55;7.85;;;18.50;48.30;;;;;;4993863;28;20244;-80
2023/06/14 03:37:12;;;;;;;8.13;7.28;;;18.50;48.70;;;;;;4993654;28;20233;-81
2023/06/14 03:39:45;;;;;;;7.93;7.22;;;18.60;48.30;;;;;;4993495;28;20174;-82
2023/06/14 03:42:11;;;;;;;10.95;9.88;;;18.70;46.90;;;;;;4994538;28;20278;-82
2023/06/14 03:44:37;;;;;;;8.18;7.60;;;18.70;47.70;;;;;;4994726;28;20230;-82
2023/06/14 03:47:03;;;;;;;8.35;7.57;;;18.80;47.60;;;;;;4995766;28;20257;-79
2023/06/14 03:49:28;;;;;;;8.40;7.82;;;18.90;48.20;;;;;;4995083;28;20671;-86
2023/06/14 03:51:55;;;;;;;8.68;7.95;;;19.00;47.40;;;;;;4996047;28;20214;-85
2023/06/14 03:54:21;;;;;;;8.60;7.88;;;19.00;46.70;;;;;;4995455;28;20178;-86
2023/06/14 03:56:47;;;;;;;8.73;8.02;;;19.00;47.40;;;;;;4995948;28;20178;-86
2023/06/14 03:59:13;;;;;;;9.52;8.63;;;19.00;46.90;;;;;;4996980;28;20224;-86
2023/06/14 04:01:45;;;;;;;8.50;7.90;;;18.90;47.40;;;;;;4995560;28;20755;-85
2023/06/14 04:04:11;;;;;;;8.82;8.13;;;18.80;47.50;;;;;;4995804;28;20225;-85
2023/06/14 04:06:37;;;;;;;8.38;7.78;;;18.90;47.20;;;;;;4982253;28;20183;-86
2023/06/14 04:09:03;;;;;;;10.30;8.32;;;18.90;47.70;;;;;;4974370;28;20183;-84
2023/06/14 04:11:29;;;;;;;8.50;7.90;;;18.80;47.60;;;;;;4981586;28;20368;-84
2023/06/14 04:13:56;;;;;;;8.65;7.90;;;18.90;47.90;;;;;;5001439;28;20634;-83
2023/06/14 04:16:22;;;;;;;8.95;8.27;;;19.00;47.60;;;;;;4997756;28;20194;-85
2023/06/14 04:18:51;;;;;;;8.50;7.82;;;18.90;47.50;;;;;;4999188;28;20186;-85
2023/06/14 04:21:16;;;;;;;8.73;8.05;;;18.90;48.40;;;;;;5008022;28;20577;-86
2023/06/14 04:23:43;;;;;;;8.43;7.82;;;19.00;49.00;;;;;;5002677;28;20197;-84
2023/06/14 04:26:10;;;;;;;8.32;7.72;;;18.90;48.10;;;;;;5007466;28;20205;-85
2023/06/14 04:28:40;;;;;;;8.70;8.20;;;18.90;48.10;;;;;;4985205;28;20259;-85
2023/06/14 04:31:08;;;;;;;9.40;8.60;;;18.90;47.20;;;;;;4975117;28;20865;-84
2023/06/14 04:33:42;;;;;;;8.98;8.05;;;19.00;48.10;;;;;;4982579;28;20535;-84
2023/06/14 04:36:11;;;;;;;9.82;9.02;;;19.00;48.40;;;;;;4970758;28;20185;-85
2023/06/14 04:38:37;;;;;;;8.57;8.00;;;19.00;47.80;;;;;;4984928;28;20186;-86
2023/06/14 04:41:03;;;;;;;9.05;8.15;;;19.00;48.50;;;;;;4982498;28;20198;-86
2023/06/14 04:43:29;;;;;;;9.82;9.13;;;18.90;48.60;;;;;;4979142;28;20185;-85
2023/06/14 04:45:56;;;;;;;9.70;9.02;;;18.90;48.10;;;;;;4982131;28;20201;-84
2023/06/14 04:48:22;;;;;;;9.75;8.75;;;18.90;48.50;;;;;;4987757;28;20277;-84
2023/06/14 04:50:52;;;;;;;9.20;8.40;;;18.90;48.60;;;;;;4982723;28;20702;-85
2023/06/14 04:53:22;;;;;;;8.98;8.18;;;18.90;48.70;;;;;;4985337;28;20266;-85
2023/06/14 04:55:48;;;;;;;9.48;8.68;;;18.90;49.00;;;;;;4985533;28;20196;-85
2023/06/14 04:58:14;;;;;;;9.27;8.38;;;18.90;49.00;;;;;;4986379;28;20193;-84
2023/06/14 05:00:42;;;;;;;9.65;8.95;;;18.80;48.80;;;;;;4978319;28;20202;-85
2023/06/14 05:03:07;;;;;;;9.18;8.38;;;18.80;48.80;;;;;;4986059;28;20316;-85
2023/06/14 05:05:34;;;;;;;9.63;8.93;;;18.80;48.80;;;;;;4997118;28;20208;-87
2023/06/14 05:08:00;;;;;;;9.00;8.32;;;18.80;49.00;;;;;;4988977;28;20189;-87
2023/06/14 05:10:25;;;;;;;10.07;9.23;;;18.70;49.50;;;;;;4980007;28;20260;-85
2023/06/14 05:12:52;;;;;;;9.38;8.68;;;18.70;49.50;;;;;;4991068;28;20279;-85
2023/06/14 05:15:18;;;;;;;9.63;8.80;;;18.70;49.80;;;;;;4982324;28;20197;-86
2023/06/14 05:17:53;;;;;;;10.55;9.35;;;18.70;50.10;;;;;;4982689;28;20204;-85
2023/06/14 05:20:18;;;;;;;9.43;8.73;;;18.80;49.80;;;;;;4982233;28;20256;-85
2023/06/14 05:22:44;;;;;;;9.35;8.65;;;18.70;49.90;;;;;;4989215;28;20585;-85
2023/06/14 05:25:09;;;;;;;9.77;8.95;;;18.70;49.50;;;;;;4979350;28;20213;-85
2023/06/14 05:27:36;;;;;;;9.70;8.80;;;18.80;50.50;;;;;;4989733;28;20206;-84
2023/06/14 05:30:03;;;;;;;10.77;9.13;;;18.80;49.70;;;;;;4984217;28;20215;-85
2023/06/14 05:32:29;;;;;;;9.57;8.68;;;18.90;49.10;;;;;;4981619;28;21022;-84
2023/06/14 05:34:55;;;;;;;9.50;8.73;;;18.80;47.90;;;;;;4981906;28;20211;-86
2023/06/14 05:37:22;;;;;;;10.80;9.25;;;18.90;47.90;;;;;;4982163;28;20191;-84
2023/06/14 05:39:47;;;;;;;9.27;8.48;;;18.90;47.30;;;;;;4981546;28;20205;-84
2023/06/14 05:42:13;;;;;;;9.57;8.73;;;19.00;47.80;;;;;;4988509;28;20219;-87
2023/06/14 05:44:38;;;;;;;9.90;9.18;;;19.00;47.60;;;;;;4990579;28;20916;-86
2023/06/14 05:47:04;;;;;;;9.57;8.88;;;19.20;47.50;;;;;;4985629;28;20194;-85
2023/06/14 05:49:30;;;;;;;10.20;9.30;;;19.30;47.20;;;;;;4979170;28;20209;-84
2023/06/14 05:51:56;;;;;;;11.18;10.18;;;19.30;46.50;;;;;;4988829;28;20225;-85
2023/06/14 05:54:22;;;;;;;23.15;20.52;;;19.40;47.10;;;;;;4988366;28;20198;-84
2023/06/14 05:56:47;;;;;;;13.30;12.02;;;19.40;46.40;;;;;;4983258;28;20265;-86
2023/06/14 05:59:13;;;;;;;13.60;12.43;;;19.30;45.90;;;;;;4988213;28;20193;-84
2023/06/14 06:01:40;;;;;;;16.08;14.38;;;19.40;46.10;;;;;;4987482;28;20237;-87
2023/06/14 06:04:06;;;;;;;10.10;9.27;;;19.40;45.90;;;;;;4982719;28;20254;-84
2023/06/14 06:06:32;;;;;;;9.15;8.43;;;19.40;45.60;;;;;;4989001;28;20202;-85
2023/06/14 06:08:58;;;;;;;8.93;8.27;;;19.40;44.70;;;;;;4989994;28;20236;-84
2023/06/14 06:11:24;;;;;;;9.60;8.80;;;19.30;45.20;;;;;;4984511;28;20237;-84
2023/06/14 06:13:50;;;;;;;9.55;8.68;;;19.40;45.20;;;;;;4984160;28;20300;-85
2023/06/14 06:16:16;;;;;;;9.55;8.50;;;19.60;45.40;;;;;;4987682;28;20187;-85
2023/06/14 06:18:41;;;;;;;9.25;8.55;;;19.60;45.00;;;;;;4985753;28;20203;-85
2023/06/14 06:21:07;;;;;;;9.68;8.77;;;19.70;44.50;;;;;;4985810;28;20316;-85
2023/06/14 06:23:33;;;;;;;9.63;8.68;;;19.60;44.90;;;;;;4987971;28;20212;-85
2023/06/14 06:25:58;;;;;;;9.45;8.55;;;19.70;45.40;;;;;;4985961;28;20198;-85
2023/06/14 06:28:24;;;;;;;9.43;8.63;;;19.70;44.80;;;;;;4983402;28;20194;-83
2023/06/14 06:30:50;;;;;;;9.63;8.82;;;19.80;45.20;;;;;;4980001;28;20214;-85
2023/06/14 06:33:16;;;;;;;9.45;8.75;;;19.80;44.90;;;;;;4987996;28;20197;-85
2023/06/14 06:35:42;;;;;;;8.95;8.25;;;19.80;45.00;;;;;;4986208;28;20217;-83
2023/06/14 06:38:09;;;;;;;9.80;8.82;;;19.80;45.40;;;;;;4991525;28;20197;-85
2023/06/14 06:40:36;;;;;;;9.02;8.10;;;20.00;44.60;;;;;;4982958;28;20970;-85
2023/06/14 06:43:03;;;;;;;9.02;8.38;;;20.10;44.60;;;;;;4989626;28;20214;-85
2023/06/14 06:45:29;;;;;;;10.48;9.65;;;20.20;44.50;;;;;;4988144;28;20197;-85
2023/06/14 06:47:55;;;;;;;10.13;9.23;;;20.30;43.90;;;;;;4985498;28;20631;-84
2023/06/14 06:50:23;;;;;;;9.27;8.48;;;20.30;44.30;;;;;;4981759;28;20636;-87
2023/06/14 06:52:49;;;;;;;9.73;8.98;;;20.30;43.90;;;;;;4984550;28;21485;-85
2023/06/14 06:55:14;;;;;;;9.77;8.88;;;20.30;44.40;;;;;;4987856;28;20192;-85
2023/06/14 06:57:40;;;;;;;9.23;8.63;;;20.30;44.30;;;;;;4983697;28;20185;-85
2023/06/14 07:00:09;;;;;;;9.93;9.25;;;20.40;44.00;;;;;;4976649;28;20194;-86
2023/06/14 07:02:35;;;;;;;9.75;8.48;;;20.60;43.10;;;;;;4986397;28;20325;-84
2023/06/14 07:05:01;;;;;;;10.00;9.00;;;20.60;43.30;;;;;;4983829;28;20584;-84
2023/06/14 07:07:26;;;;;;;9.32;8.68;;;20.70;43.40;;;;;;4980500;28;20304;-85
2023/06/14 07:09:52;;;;;;;9.07;8.48;;;20.60;43.70;;;;;;4981495;28;20229;-86
2023/06/14 07:12:18;;;;;;;9.95;9.02;;;20.80;44.10;;;;;;4990864;28;20217;-86
2023/06/14 07:14:43;;;;;;;9.77;9.05;;;20.90;43.90;;;;;;4984662;28;20274;-85
2023/06/14 07:17:09;;;;;;;10.30;9.50;;;20.90;43.30;;;;;;4990085;28;20197;-86
2023/06/14 07:19:35;;;;;;;9.95;9.07;;;21.00;42.80;;;;;;4980930;28;20740;-85
2023/06/14 07:22:00;;;;;;;10.15;9.35;;;21.10;43.50;;;;;;4983493;28;20230;-86
2023/06/14 07:24:28;;;;;;;11.05;10.00;;;21.20;43.50;;;;;;4987701;28;20206;-86
2023/06/14 07:26:54;;;;;;;10.40;9.32;;;21.20;42.30;;;;;;4988781;28;20200;-85
2023/06/14 07:29:21;;;;;;;9.38;8.77;;;21.10;42.90;;;;;;4982955;28;20198;-85
2023/06/14 07:31:47;;;;;;;9.70;9.00;;;20.90;43.40;;;;;;4980832;28;20233;-85
2023/06/14 07:34:13;;;;;;;10.25;9.32;;;21.00;43.30;;;;;;4988774;28;20204;-87
2023/06/14 07:36:39;;;;;;;9.20;8.60;;;21.10;43.20;;;;;;4986456;28;20185;-85
2023/06/14 07:39:06;;;;;;;10.40;9.52;;;21.20;42.60;;;;;;4978006;28;20194;-84
2023/06/14 07:41:32;;;;;;;9.63;8.82;;;21.30;41.20;;;;;;4985801;28;20317;-84
2023/06/14 07:43:58;;;;;;;9.38;8.65;;;21.40;41.80;;;;;;4988222;28;20769;-84
2023/06/14 07:46:24;;;;;;;9.90;9.00;;;21.40;42.10;;;;;;4981279;28;20309;-85
2023/06/14 07:48:50;;;;;;;10.57;9.77;;;21.50;41.70;;;;;;4989281;28;20237;-85
2023/06/14 07:51:15;;;;;;;10.18;9.35;;;21.70;41.60;;;;;;4980938;28;20266;-86
2023/06/14 07:53:42;;;;;;;10.10;9.18;;;21.90;40.80;;;;;;4985428;28;20190;-86
2023/06/14 07:56:07;;;;;;;11.23;10.30;;;22.00;40.50;;;;;;4983250;28;20222;-85
2023/06/14 07:58:34;;;;;;;10.77;9.98;;;22.20;39.40;;;;;;4990821;28;20189;-85
2023/06/14 08:01:01;;;;;;;10.55;9.85;;;22.30;38.80;;;;;;4981823;28;20200;-85
2023/06/14 08:03:27;;;;;;;11.65;10.50;;;22.40;40.40;;;;;;4979189;28;20571;-85
2023/06/14 08:05:52;;;;;;;10.55;9.85;;;22.50;40.10;;;;;;4985226;28;20213;-85
2023/06/14 08:08:18;;;;;;;11.15;10.25;;;22.70;39.50;;;;;;4981934;28;20280;-88
2023/06/14 08:10:44;;;;;;;10.70;9.82;;;22.70;38.60;;;;;;4980696;28;20747;-84
2023/06/14 08:13:10;;;;;;;11.07;10.35;;;22.80;38.20;;;;;;5002820;28;20213;-84
2023/06/14 08:15:36;;;;;;;10.75;9.88;;;22.90;37.20;;;;;;4988872;28;20243;-85
2023/06/14 08:18:01;;;;;;;14.23;13.48;;;23.00;38.20;;;;;;4979357;28;20218;-84
2023/06/14 08:20:27;;;;;;;11.45;10.73;;;23.20;37.20;;;;;;4985732;28;20683;-86
2023/06/14 08:22:56;;;;;;;12.13;11.43;;;23.40;36.90;;;;;;4987102;28;20275;-84
2023/06/14 08:25:22;;;;;;;12.65;11.60;;;23.60;36.00;;;;;;4983857;28;20189;-86
2023/06/14 08:27:49;;;;;;;13.43;12.48;;;23.60;35.80;;;;;;4987889;28;20204;-85
2023/06/14 08:30:15;;;;;;;14.00;12.95;;;23.70;35.50;;;;;;4982037;28;20278;-86
2023/06/14 08:32:40;;;;;;;13.07;12.20;;;23.70;35.70;;;;;;4986022;28;20367;-87
2023/06/14 08:35:07;;;;;;;13.95;13.10;;;23.80;35.20;;;;;;4986138;28;20189;-86
2023/06/14 08:37:35;;;;;;;14.30;13.20;;;23.70;35.00;;;;;;4987743;28;20247;-87
2023/06/14 08:40:04;;;;;;;14.68;13.88;;;23.70;35.00;;;;;;4982888;28;20210;-85
2023/06/14 08:42:32;;;;;;;13.93;13.02;;;23.90;34.70;;;;;;4989695;28;20763;-83
2023/06/14 08:44:58;;;;;;;14.65;13.68;;;23.80;35.10;;;;;;4986575;28;20212;-85
2023/06/14 08:47:26;;;;;;;13.27;12.43;;;23.70;35.00;;;;;;4988753;28;20187;-83
2023/06/14 08:49:57;;;;;;;15.07;13.57;;;23.80;34.70;;;;;;4981197;28;20202;-84
2023/06/14 08:52:23;;;;;;;15.23;14.05;;;24.10;34.60;;;;;;4987760;28;20221;-83
2023/06/14 08:54:50;;;;;;;14.95;14.13;;;24.30;34.10;;;;;;4989971;28;20333;-83
2023/06/14 08:57:17;;;;;;;15.57;14.75;;;24.40;34.40;;;;;;4986445;28;21566;-85
2023/06/14 08:59:48;;;;;;;15.50;14.50;;;24.50;33.70;;;;;;4983620;28;20217;-83
2023/06/14 09:02:17;;;;;;;14.63;13.82;;;24.60;33.30;;;;;;4989144;28;20744;-83
2023/06/14 09:04:44;;;;;;;14.88;14.07;;;24.50;33.50;;;;;;4992768;28;20243;-84
2023/06/14 09:07:10;;;;;;;15.48;14.25;;;24.50;33.80;;;;;;4987080;28;20319;-84
2023/06/14 09:09:41;;;;;;;15.57;14.35;;;24.50;33.50;;;;;;4988028;28;20216;-84
2023/06/14 09:12:10;;;;;;;15.38;14.15;;;24.60;33.30;;;;;;4990728;28;20238;-87
2023/06/14 09:14:38;;;;;;;15.38;14.38;;;25.00;32.60;;;;;;4992802;28;20182;-84
2023/06/14 09:17:04;;;;;;;15.05;14.00;;;25.20;32.30;;;;;;4986926;28;20189;-83
2023/06/14 09:19:30;;;;;;;14.85;13.85;;;25.50;31.70;;;;;;4987251;28;20995;-84
2023/06/14 09:21:56;;;;;;;15.15;13.98;;;25.60;31.20;;;;;;4986560;28;20248;-84
2023/06/14 09:24:25;;;;;;;14.82;13.82;;;25.50;31.70;;;;;;4979384;28;20198;-85
2023/06/14 09:26:51;;;;;;;16.17;14.65;;;25.70;31.50;;;;;;4990753;28;20215;-84
2023/06/14 09:29:17;;;;;;;14.30;13.50;;;25.90;31.20;;;;;;4985045;28;20275;-86
2023/06/14 09:31:45;;;;;;;14.10;13.25;;;25.60;31.00;;;;;;4988592;28;20360;-85
2023/06/14 09:34:11;;;;;;;14.23;13.32;;;25.80;31.00;;;;;;4986544;28;20187;-84
2023/06/14 09:36:40;;;;;;;14.32;13.63;;;26.00;30.30;;;;;;4990038;28;20750;-86
2023/06/14 09:39:08;;;;;;;14.82;13.93;;;25.90;30.70;;;;;;4986802;28;20187;-84
2023/06/14 09:41:35;;;;;;;14.43;13.32;;;26.10;30.70;;;;;;4990940;28;22015;-84
2023/06/14 09:44:02;;;;;;;14.68;13.77;;;26.00;31.30;;;;;;4992637;28;20324;-84
2023/06/14 09:46:32;;;;;;;14.43;13.63;;;26.00;31.50;;;;;;4997745;28;20203;-84
2023/06/14 09:48:58;;;;;;;14.02;13.32;;;26.40;30.20;;;;;;4991229;28;20198;-84
2023/06/14 09:51:26;;;;;;;13.77;12.98;;;26.60;29.30;;;;;;4988128;28;20312;-85
2023/06/14 09:53:52;;;;;;;14.75;13.68;;;26.70;28.90;;;;;;4995248;28;20214;-85
2023/06/14 09:56:32;;;;;;;16.02;15.13;;;26.90;28.90;;;;;;4989205;28;20198;-85
2023/06/14 09:58:59;;;;;;;16.67;15.90;;;27.20;29.30;;;;;;4984381;28;20273;-83
2023/06/14 10:01:27;;;;;;;18.63;17.60;;;27.10;28.70;;;;;;4993772;28;20221;-85
2023/06/14 10:04:03;;;;;;;18.35;17.27;;;27.20;28.90;;;;;;4990899;28;20726;-84
2023/06/14 10:06:29;;;;;;;19.75;18.60;;;27.40;29.00;;;;;;4994555;28;20793;-84
2023/06/14 10:09:01;;;;;;;19.65;18.77;;;27.40;28.80;;;;;;5000345;28;20179;-85
2023/06/14 10:11:27;;;;;;;18.75;17.85;;;27.40;28.20;;;;;;4989479;28;20215;-83
2023/06/14 10:13:57;;;;;;;17.67;16.73;;;27.20;28.60;;;;;;5007667;28;20192;-85
2023/06/14 10:16:27;;;;;;;18.83;17.70;;;27.20;28.90;;;;;;5008478;28;20185;-84
2023/06/14 10:19:00;;;;;;;18.90;17.80;;;27.20;28.80;;;;;;5008840;28;20181;-84
2023/06/14 10:22:01;;;;;;;19.13;18.20;;;27.40;28.40;;;;;;5006250;28;20237;-83
2023/06/14 10:24:40;;;;;;;20.08;18.92;;;27.40;28.40;;;;;;5003462;28;20209;-84
2023/06/14 10:27:10;;;;;;;18.52;17.70;;;27.30;28.70;;;;;;5005545;28;20200;-85
2023/06/14 10:29:56;;;;;;;19.23;18.02;;;27.60;28.40;;;;;;5002210;28;20540;-85
2023/06/14 10:32:25;;;;;;;19.63;18.65;;;28.10;27.50;;;;;;4999517;28;20305;-88
2023/06/14 10:34:58;;;;;;;21.75;20.63;;;28.40;27.40;;;;;;4992269;28;20186;-87
2023/06/14 10:37:24;;;;;;;21.50;20.17;;;28.40;26.40;;;;;;4994231;28;20222;-87
2023/06/14 10:39:50;;;;;;;20.45;19.35;;;28.20;27.00;;;;;;4993031;28;20190;-87
2023/06/14 10:42:16;;;;;;;22.05;20.98;;;28.10;27.70;;;;;;4998014;28;20769;-88
2023/06/14 10:44:51;;;;;;;21.92;20.83;;;27.80;27.00;;;;;;4993908;28;20190;-87
2023/06/14 10:47:34;;;;;;;22.15;21.05;;;27.60;27.20;;;;;;4997213;28;20327;-87
2023/06/14 10:50:05;;;;;;;21.15;20.15;;;27.40;27.10;;;;;;4994738;28;20212;-86
2023/06/14 10:52:41;;;;;;;23.65;22.25;;;27.30;27.90;;;;;;4993366;28;20202;-86
2023/06/14 10:55:18;;;;;;;24.60;23.27;;;27.40;27.00;;;;;;4997355;28;20644;-87
2023/06/14 10:57:51;;;;;;;23.58;22.55;;;27.70;25.50;;;;;;4994900;28;20269;-87
2023/06/14 11:00:23;;;;;;;22.95;22.00;;;28.20;25.30;;;;;;4996466;28;20170;-87
2023/06/14 11:03:16;;;;;;;22.42;21.35;;;28.90;24.50;;;;;;4995374;28;20202;-87
2023/06/14 11:05:52;;;;;;;22.40;21.38;;;29.10;24.90;;;;;;4997655;28;20182;-88
2023/06/14 11:08:47;;;;;;;27.55;26.45;;;29.10;25.30;;;;;;4986030;28;20178;-87
2023/06/14 11:11:13;;;;;;;27.55;26.15;;;29.50;25.00;;;;;;4987580;28;20230;-85
2023/06/14 11:13:41;;;;;;;27.67;26.38;;;29.40;25.00;;;;;;4995808;28;20237;-85
2023/06/14 11:16:14;;;;;;;26.02;24.77;;;29.30;25.20;;;;;;4994621;28;20190;-87
2023/06/14 11:18:41;;;;;;;26.83;25.63;;;29.10;25.50;;;;;;4993473;28;20189;-86
2023/06/14 11:21:06;;;;;;;27.98;26.67;;;29.50;25.40;;;;;;4997507;28;20216;-88
2023/06/14 11:23:32;;;;;;;28.10;26.90;;;29.50;25.90;;;;;;5004332;28;20174;-86
2023/06/14 11:25:57;;;;;;;27.35;26.15;;;29.50;24.80;;;;;;5001855;28;20894;-86
2023/06/14 11:28:23;;;;;;;26.83;25.73;;;28.90;25.10;;;;;;5001628;28;20193;-86
2023/06/14 11:31:02;;;;;;;25.30;24.20;;;28.60;25.00;;;;;;4997254;28;20578;-86
2023/06/14 11:33:27;;;;;;;22.95;21.75;;;28.50;25.50;;;;;;4994303;28;20185;-85
2023/06/14 11:35:53;;;;;;;27.33;25.58;;;28.60;25.80;;;;;;4993500;28;20198;-86
2023/06/14 11:38:19;;;;;;;28.20;27.00;;;29.20;25.70;;;;;;4992670;28;20181;-86
2023/06/14 11:40:44;;;;;;;27.52;26.27;;;29.40;25.10;;;;;;4992806;28;20316;-86
2023/06/14 11:43:12;;;;;;;27.15;25.83;;;29.50;24.80;;;;;;4994336;28;20212;-84
2023/06/14 11:45:39;;;;;;;27.13;25.73;;;29.80;25.20;;;;;;4992108;28;20312;-85
2023/06/14 11:48:06;;;;;;;26.98;25.67;;;30.20;25.40;;;;;;4993070;28;20698;-86
2023/06/14 11:50:33;;;;;;;25.77;24.75;;;29.70;25.00;;;;;;4996351;28;20225;-85
2023/06/14 11:53:07;;;;;;;28.48;27.23;;;28.90;25.50;;;;;;4993548;28;20285;-86
2023/06/14 11:55:44;;;;;;;28.13;26.83;;;28.70;26.30;;;;;;4993996;28;20182;-86
2023/06/14 11:58:11;;;;;;;29.92;28.27;;;29.20;26.50;;;;;;4994225;28;20181;-85
2023/06/14 12:00:37;;;;;;;27.75;26.38;;;29.60;26.20;;;;;;4995164;28;20181;-86
2023/06/14 12:03:03;;;;;;;27.83;26.63;;;29.40;25.70;;;;;;4994067;28;20214;-85
2023/06/14 12:05:29;;;;;;;27.13;25.92;;;29.70;25.50;;;;;;4993061;28;20389;-85
2023/06/14 12:08:03;;;;;;;27.92;26.65;;;30.10;25.50;;;;;;4990990;28;20757;-85
2023/06/14 12:10:29;;;;;;;27.90;26.80;;;29.80;25.00;;;;;;4990982;28;20199;-85
2023/06/14 12:12:59;;;;;;;29.02;27.73;;;29.50;25.20;;;;;;4990900;28;20945;-85
2023/06/14 12:15:28;;;;;;;29.60;27.95;;;29.70;25.40;;;;;;4991377;28;20181;-84
2023/06/14 12:17:54;;;;;;;27.02;25.67;;;30.20;25.70;;;;;;4992635;28;20181;-86
2023/06/14 12:20:21;;;;;;;27.92;26.27;;;30.40;24.70;;;;;;4993586;28;20228;-86
2023/06/14 12:22:58;;;;;;;27.50;25.95;;;30.50;25.00;;;;;;4994102;28;20245;-86
2023/06/14 12:25:32;;;;;;;27.55;25.98;;;30.50;25.60;;;;;;4994256;28;20225;-84
2023/06/14 12:27:59;;;;;;;25.27;24.25;;;30.30;25.00;;;;;;4995018;28;20209;-86
2023/06/14 12:30:25;;;;;;;26.25;25.15;;;29.90;25.10;;;;;;4995424;28;20197;-86
2023/06/14 12:32:51;;;;;;;26.77;25.50;;;29.20;26.10;;;;;;4995907;28;20607;-86
2023/06/14 12:35:18;;;;;;;27.50;25.95;;;28.80;26.40;;;;;;4998101;28;20225;-86
2023/06/14 12:37:45;;;;;;;27.85;26.55;;;28.40;26.50;;;;;;4998671;28;20174;-86
2023/06/14 12:40:11;;;;;;;28.15;26.90;;;29.00;26.20;;;;;;4998376;28;20234;-86